Weather at Pir Heliport

Public forecast

Using degrees Fahrenheit for public forecast. Weather courtesy of forecast.io.

Closest aviation weather report (METAR) to Pir Heliport

Closest report is Lehigh Valley International Airport, 7.2 nm (13.3 km) SW. Retrieved 2021/06/13 10:51 UTC (26 minutes ago):

KABE 131051Z 00000KT 10SM OVC041 18/12 A2993 RMK AO2 SLP133 T01780117

Closest aviation forecast (TAF) to Pir Heliport

Closest forecast is Lehigh Valley International Airport, 7.2 nm (13.3 km) SW. Retrieved 2021/06/13 06:34 UTC (5 hours ago):

TAF KABE 130531Z 1306/1406 VRB03KT P6SM OVC028 TEMPO 1309/1313 4SM -SHRA BR FM131900 19004KT P6SM BKN040 FM140100 18004KT P6SM SHRA OVC025